Garwood, Missouri
Current Conditions -  °F | °C
As of 12:53 PM on Thursday 30 Oct 2014 (Local Time) from KPOF Reporting Station
Clear Clear  
Wind Chill: 62°   Ceiling: Unl
Heat Index: 62°   Visibility: 10mi
Dew Point: 38°   Wind: 6mph
Humidity: 41%   Direction: NA
Pressure: 30.1"   Gusts: NA
Location:  36.9608°N, 90.9923°W
Report Text: KPOF 301753Z AUTO VRB05KT 10SM CLR 17/03 A3010 RMK AO2 SLP196 T01670033 10167 20017 58020
Loading
Personal Weather Stations






























Interactive Weather Map
Tropical Storm Tracking
New forecast layout! Learn more

10-Day Weather Forecast

Advertisements
Track Severe Weather on mobile